createdAt,value
2022-10-23T00:00:22.266Z,13.31
2022-10-23T00:02:24.126Z,13.19
2022-10-23T00:04:26.049Z,13.25
2022-10-23T00:06:29.224Z,13.20
2022-10-23T00:08:31.031Z,13.22
2022-10-23T00:10:32.933Z,13.31
2022-10-23T00:12:34.790Z,13.22
2022-10-23T00:14:36.536Z,13.20
2022-10-23T00:16:38.411Z,13.17
2022-10-23T00:18:41.082Z,13.13
2022-10-23T00:20:42.790Z,13.21
2022-10-23T00:22:44.681Z,13.28
2022-10-23T00:24:46.635Z,13.22
2022-10-23T00:26:50.538Z,13.27
2022-10-23T00:28:54.123Z,13.34
2022-10-23T00:30:55.934Z,13.40
2022-10-23T00:32:57.619Z,13.36
2022-10-23T00:34:59.546Z,13.39
2022-10-23T00:37:01.375Z,13.43
2022-10-23T00:39:04.008Z,13.08
2022-10-23T00:41:07.339Z,13.33
2022-10-23T00:43:18.812Z,13.32
2022-10-23T00:45:25.356Z,13.27
2022-10-23T00:47:27.122Z,13.22
2022-10-23T00:49:28.922Z,13.17
2022-10-23T00:51:36.201Z,13.23
2022-10-23T00:53:38.547Z,13.16
2022-10-23T00:55:43.173Z,13.25
2022-10-23T00:57:47.335Z,13.18
2022-10-23T00:59:49.242Z,13.26
2022-10-23T01:01:51.269Z,13.24
2022-10-23T01:03:53.376Z,13.04
2022-10-23T01:06:13.199Z,13.08
2022-10-23T01:08:27.251Z,12.94
2022-10-23T01:10:37.866Z,12.90
2022-10-23T01:13:06.118Z,12.88
2022-10-23T01:15:16.512Z,12.93
2022-10-23T01:17:44.566Z,12.84
2022-10-23T01:20:07.192Z,12.87
2022-10-23T01:22:17.965Z,12.89
2022-10-23T01:24:51.119Z,12.91
2022-10-23T01:27:10.215Z,13.00
2022-10-23T01:29:41.293Z,13.05
2022-10-23T01:31:45.671Z,13.04
2022-10-23T01:33:51.620Z,13.02
2022-10-23T01:36:02.740Z,13.00
2022-10-23T01:38:13.272Z,12.87
2022-10-23T01:40:28.047Z,12.91
2022-10-23T01:42:35.885Z,12.88
2022-10-23T01:44:49.366Z,12.74
2022-10-23T01:46:53.926Z,12.76
2022-10-23T01:48:58.772Z,12.70
2022-10-23T01:51:04.969Z,12.57
2022-10-23T01:53:06.919Z,12.59
2022-10-23T01:55:10.939Z,12.56
2022-10-23T01:57:17.716Z,12.41
2022-10-23T01:59:27.414Z,12.46
2022-10-23T02:01:31.833Z,12.34
2022-10-23T02:03:37.075Z,12.42
2022-10-23T02:05:39.397Z,12.34
2022-10-23T02:07:41.654Z,12.30
2022-10-23T02:09:43.652Z,12.30
2022-10-23T02:11:59.480Z,12.33
2022-10-23T02:14:20.776Z,12.34
2022-10-23T02:16:41.918Z,12.35
2022-10-23T02:19:08.936Z,12.44
2022-10-23T02:21:16.590Z,12.51
2022-10-23T02:23:56.853Z,12.48
2022-10-23T02:26:16.142Z,12.40
2022-10-23T02:28:23.483Z,12.38
2022-10-23T02:30:25.244Z,12.28
2022-10-23T02:32:29.097Z,12.35
2022-10-23T02:34:30.781Z,12.37
2022-10-23T02:36:32.883Z,12.40
2022-10-23T02:38:41.993Z,12.24
2022-10-23T02:40:45.792Z,12.12
2022-10-23T02:42:58.134Z,12.16
2022-10-23T02:45:24.344Z,12.21
2022-10-23T02:47:59.735Z,12.32
2022-10-23T02:50:01.480Z,12.37
2022-10-23T02:52:23.498Z,12.43
2022-10-23T02:54:58.446Z,12.46
2022-10-23T02:57:14.002Z,12.52
2022-10-23T02:59:27.121Z,12.54
2022-10-23T03:01:38.674Z,12.52
2022-10-23T03:03:54.069Z,12.53
2022-10-23T03:05:56.339Z,12.50
2022-10-23T03:07:58.439Z,12.35
2022-10-23T03:10:00.346Z,12.34
2022-10-23T03:12:02.215Z,12.27
2022-10-23T03:14:03.915Z,12.26
2022-10-23T03:16:05.781Z,12.21
2022-10-23T03:18:07.789Z,12.29
2022-10-23T03:20:10.240Z,12.33
2022-10-23T03:22:11.982Z,12.30
2022-10-23T03:24:13.895Z,12.35
2022-10-23T03:26:16.159Z,12.52
2022-10-23T03:28:18.114Z,12.64
2022-10-23T03:30:20.317Z,12.53
2022-10-23T03:32:22.059Z,12.64
2022-10-23T03:34:23.986Z,12.72
2022-10-23T03:36:26.154Z,12.71
2022-10-23T03:38:27.879Z,12.76
2022-10-23T03:40:29.830Z,12.85
2022-10-23T03:42:31.680Z,12.99
2022-10-23T03:44:33.528Z,13.02
2022-10-23T03:46:35.422Z,13.06
2022-10-23T03:48:37.408Z,13.12
2022-10-23T03:50:39.173Z,13.17
2022-10-23T03:52:41.337Z,13.22
2022-10-23T03:54:43.242Z,13.24
2022-10-23T03:56:44.974Z,13.30
2022-10-23T03:58:46.899Z,13.36
2022-10-23T04:00:48.731Z,13.37
2022-10-23T04:02:50.521Z,13.36
2022-10-23T04:04:52.426Z,13.31
2022-10-23T04:06:54.209Z,13.14
2022-10-23T04:08:56.068Z,13.13
2022-10-23T04:10:57.848Z,13.19
2022-10-23T04:12:59.735Z,13.16
2022-10-23T04:15:01.460Z,13.17
2022-10-23T04:17:03.446Z,13.29
2022-10-23T04:19:05.214Z,13.26
2022-10-23T04:21:06.911Z,13.29
2022-10-23T04:23:08.697Z,13.27
2022-10-23T04:25:10.657Z,13.15
2022-10-23T04:27:13.243Z,13.22
2022-10-23T04:29:15.213Z,13.15
2022-10-23T04:31:17.049Z,13.10
2022-10-23T04:33:19.159Z,13.02
2022-10-23T04:35:21.081Z,13.06
2022-10-23T04:37:23.000Z,13.15
2022-10-23T04:39:24.698Z,13.13
2022-10-23T04:41:26.673Z,13.14
2022-10-23T04:43:28.469Z,13.07
2022-10-23T04:45:30.179Z,13.13
2022-10-23T04:47:31.954Z,13.24
2022-10-23T04:49:33.764Z,13.31
2022-10-23T04:51:35.464Z,13.34
2022-10-23T04:53:37.458Z,13.42
2022-10-23T04:55:39.376Z,13.42
2022-10-23T04:57:41.520Z,13.46
2022-10-23T04:59:43.392Z,13.42
2022-10-23T05:01:45.348Z,13.46
2022-10-23T05:03:47.045Z,13.47
2022-10-23T05:05:48.811Z,13.47
2022-10-23T05:07:50.617Z,13.51
2022-10-23T05:09:52.314Z,13.50
2022-10-23T05:11:54.745Z,13.38
2022-10-23T05:13:56.505Z,13.16
2022-10-23T05:15:58.871Z,12.90
2022-10-23T05:18:05.929Z,12.82
2022-10-23T05:20:12.230Z,12.93
2022-10-23T05:22:14.637Z,13.02
2022-10-23T05:24:16.555Z,13.09
2022-10-23T05:26:18.404Z,13.07
2022-10-23T05:28:24.170Z,13.09
2022-10-23T05:30:26.053Z,12.93
2022-10-23T05:32:31.422Z,12.93
2022-10-23T05:34:36.740Z,12.86
2022-10-23T05:36:38.710Z,12.85
2022-10-23T05:38:41.683Z,12.95
2022-10-23T05:40:43.446Z,12.94
2022-10-23T05:42:45.485Z,13.05
2022-10-23T05:44:47.414Z,12.91
2022-10-23T05:46:49.094Z,12.91
2022-10-23T05:48:51.547Z,12.92
2022-10-23T05:50:53.603Z,12.90
2022-10-23T05:52:55.331Z,13.03
2022-10-23T05:54:57.149Z,13.13
2022-10-23T05:56:58.909Z,13.22
2022-10-23T05:59:00.688Z,13.14
2022-10-23T06:01:10.170Z,13.30
2022-10-23T06:03:11.996Z,13.30
2022-10-23T06:05:13.802Z,13.32
2022-10-23T06:07:15.758Z,13.43
2022-10-23T06:09:17.536Z,13.49
2022-10-23T06:11:19.434Z,13.52
2022-10-23T06:13:21.293Z,13.57
2022-10-23T06:15:23.167Z,13.59
2022-10-23T06:17:24.891Z,13.55
2022-10-23T06:19:26.890Z,13.49
2022-10-23T06:21:28.644Z,13.51
2022-10-23T06:23:32.430Z,13.48
2022-10-23T06:25:34.295Z,13.40
2022-10-23T06:27:36.071Z,13.55
2022-10-23T06:29:37.812Z,13.52
2022-10-23T06:31:39.711Z,13.39
2022-10-23T06:33:41.943Z,13.51
2022-10-23T06:35:43.745Z,13.42
2022-10-23T06:37:45.674Z,13.29
2022-10-23T06:39:47.449Z,13.20
2022-10-23T06:41:49.167Z,13.27
2022-10-23T06:43:51.746Z,13.34
2022-10-23T06:45:53.914Z,13.35
2022-10-23T06:47:55.845Z,13.53
2022-10-23T06:49:57.604Z,13.67
2022-10-23T06:51:59.404Z,13.64
2022-10-23T06:54:01.155Z,13.73
2022-10-23T06:56:05.021Z,13.80
2022-10-23T06:58:09.795Z,13.87
2022-10-23T07:00:12.525Z,14.14
2022-10-23T07:02:14.386Z,14.18
2022-10-23T07:04:16.251Z,14.27
2022-10-23T07:06:17.997Z,14.25
2022-10-23T07:08:19.882Z,14.36
2022-10-23T07:10:22.391Z,14.16
2022-10-23T07:12:24.222Z,14.16
2022-10-23T07:14:26.136Z,14.18
2022-10-23T07:16:28.072Z,14.25
2022-10-23T07:18:29.852Z,14.18
2022-10-23T07:20:31.741Z,14.25
2022-10-23T07:22:33.672Z,14.23
2022-10-23T07:24:35.408Z,14.22
2022-10-23T07:26:37.371Z,14.21
2022-10-23T07:28:39.298Z,14.18
2022-10-23T07:30:40.999Z,14.17
2022-10-23T07:32:42.896Z,14.17
2022-10-23T07:34:44.943Z,14.09
2022-10-23T07:36:46.633Z,14.03
2022-10-23T07:38:48.437Z,13.99
2022-10-23T07:40:50.693Z,14.09
2022-10-23T07:42:52.374Z,14.07
2022-10-23T07:44:54.203Z,14.12
2022-10-23T07:46:56.031Z,14.21
2022-10-23T07:48:57.723Z,14.05
2022-10-23T07:51:05.992Z,14.21
2022-10-23T07:53:08.007Z,14.06
2022-10-23T07:55:09.864Z,14.07
2022-10-23T07:57:11.670Z,14.10
2022-10-23T07:59:13.656Z,13.89
2022-10-23T08:01:19.208Z,14.03
2022-10-23T08:03:21.333Z,14.03
2022-10-23T08:05:23.245Z,14.21
2022-10-23T08:07:24.921Z,14.30
2022-10-23T08:09:26.901Z,14.36
2022-10-23T08:11:28.878Z,14.21
2022-10-23T08:13:30.586Z,14.02
2022-10-23T08:15:32.325Z,14.07
2022-10-23T08:17:34.124Z,14.04
2022-10-23T08:19:36.511Z,14.14
2022-10-23T08:21:38.678Z,14.08
2022-10-23T08:23:40.521Z,13.92
2022-10-23T08:25:42.299Z,13.92
2022-10-23T08:27:44.269Z,13.97
2022-10-23T08:29:46.366Z,13.89
2022-10-23T08:31:48.073Z,13.94
2022-10-23T08:35:56.649Z,13.81
2022-10-23T08:37:58.326Z,13.89
2022-10-23T08:40:02.361Z,13.87
2022-10-23T08:42:04.484Z,13.86
2022-10-23T08:44:13.472Z,13.86
2022-10-23T08:46:19.822Z,13.77
2022-10-23T08:48:25.441Z,13.79
2022-10-23T08:50:32.356Z,13.85
2022-10-23T08:52:44.375Z,13.84
2022-10-23T08:55:14.421Z,13.88
2022-10-23T08:57:18.050Z,13.99
2022-10-23T08:59:27.133Z,13.99
2022-10-23T09:01:40.843Z,14.03
2022-10-23T09:03:43.405Z,14.13
2022-10-23T09:06:00.097Z,14.06
2022-10-23T09:08:21.699Z,14.09
2022-10-23T09:10:34.492Z,14.04
2022-10-23T09:12:36.903Z,14.06
2022-10-23T09:15:29.926Z,13.84
2022-10-23T09:17:42.372Z,13.84
2022-10-23T09:19:46.335Z,13.69
2022-10-23T09:21:48.728Z,13.70
2022-10-23T09:23:50.440Z,13.59
2022-10-23T09:25:53.728Z,13.75
2022-10-23T09:28:00.174Z,13.68
2022-10-23T09:30:07.101Z,13.65
2022-10-23T09:32:08.901Z,13.55
2022-10-23T09:34:20.810Z,13.44
2022-10-23T09:36:23.910Z,13.59
2022-10-23T09:38:34.874Z,13.63
2022-10-23T09:40:58.234Z,13.43
2022-10-23T09:43:13.908Z,13.59
2022-10-23T09:45:42.069Z,13.53
2022-10-23T09:47:44.170Z,13.49
2022-10-23T09:49:51.534Z,13.50
2022-10-23T09:52:19.732Z,13.65
2022-10-23T09:54:23.374Z,13.83
2022-10-23T09:56:25.039Z,13.90
2022-10-23T09:59:03.305Z,14.05
2022-10-23T10:01:05.637Z,14.12
2022-10-23T10:03:23.204Z,14.08
2022-10-23T10:05:29.737Z,14.17
2022-10-23T10:07:33.529Z,14.06
2022-10-23T10:09:37.791Z,14.03
2022-10-23T10:11:57.360Z,13.81
2022-10-23T10:14:19.397Z,13.69
2022-10-23T10:16:33.405Z,13.59
2022-10-23T10:18:37.806Z,13.50
2022-10-23T10:20:48.189Z,13.55
2022-10-23T10:23:21.947Z,13.52
2022-10-23T10:25:52.396Z,13.58
2022-10-23T10:28:13.494Z,13.61
2022-10-23T10:30:20.767Z,13.68
2022-10-23T10:32:42.049Z,13.73
2022-10-23T10:34:48.863Z,13.73
2022-10-23T10:36:57.786Z,13.67
2022-10-23T10:39:10.971Z,13.67
2022-10-23T10:41:42.841Z,13.79
2022-10-23T10:44:32.687Z,13.80
2022-10-23T10:47:03.396Z,13.79
2022-10-23T10:49:18.852Z,13.82
2022-10-23T10:51:26.506Z,14.05
2022-10-23T10:53:51.591Z,14.27
2022-10-23T10:55:59.596Z,14.04
2022-10-23T10:58:16.872Z,14.17
2022-10-23T11:00:21.446Z,14.15
2022-10-23T11:02:35.656Z,14.15
2022-10-23T11:05:10.091Z,13.81
2022-10-23T11:07:15.855Z,14.16
2022-10-23T11:09:21.482Z,14.14
2022-10-23T11:11:27.214Z,13.94
2022-10-23T11:13:40.607Z,13.89
2022-10-23T11:15:44.899Z,13.97
2022-10-23T11:17:55.116Z,13.91
2022-10-23T11:20:16.045Z,13.95
2022-10-23T11:22:37.937Z,13.95
2022-10-23T11:25:04.069Z,13.95
2022-10-23T11:27:20.856Z,13.89
2022-10-23T11:29:28.382Z,13.83
2022-10-23T11:31:44.514Z,13.90
2022-10-23T11:34:10.901Z,13.95
2022-10-23T11:36:20.802Z,14.03
2022-10-23T11:38:28.152Z,14.01
2022-10-23T11:40:30.100Z,14.13
2022-10-23T11:42:47.473Z,14.10
2022-10-23T11:44:50.372Z,14.06
2022-10-23T11:47:31.301Z,14.03
2022-10-23T11:49:34.568Z,13.98
2022-10-23T11:51:40.970Z,13.97
2022-10-23T11:53:42.673Z,14.04
2022-10-23T11:56:11.924Z,14.06
2022-10-23T11:58:23.718Z,13.93
2022-10-23T12:00:39.227Z,14.08
2022-10-23T12:02:43.339Z,14.15
2022-10-23T12:04:52.334Z,14.26
2022-10-23T12:07:00.805Z,14.20
2022-10-23T12:09:22.331Z,14.37
2022-10-23T12:11:41.119Z,14.36
2022-10-23T12:13:46.714Z,14.17
2022-10-23T12:15:56.061Z,14.44
2022-10-23T12:18:16.819Z,14.39
2022-10-23T12:20:25.771Z,14.38
2022-10-23T12:22:42.551Z,14.38
2022-10-23T12:25:33.985Z,14.47
2022-10-23T12:27:44.615Z,14.50
2022-10-23T12:30:14.485Z,14.66
2022-10-23T12:33:01.409Z,14.66
2022-10-23T12:35:44.665Z,14.51
2022-10-23T12:38:12.535Z,14.64
2022-10-23T12:40:14.284Z,14.46
2022-10-23T12:42:23.648Z,14.57
2022-10-23T12:44:26.486Z,14.44
2022-10-23T12:46:32.658Z,14.45
2022-10-23T12:48:34.537Z,14.40
2022-10-23T12:50:36.943Z,14.49
2022-10-23T12:52:38.663Z,14.54
2022-10-23T12:54:40.481Z,14.41
2022-10-23T12:56:42.430Z,14.35
2022-10-23T12:58:58.854Z,14.28
2022-10-23T13:01:03.575Z,14.26
2022-10-23T13:03:05.400Z,14.22
2022-10-23T13:05:09.205Z,14.24
2022-10-23T13:07:11.462Z,14.16
2022-10-23T13:09:27.643Z,14.13
2022-10-23T13:11:31.058Z,14.04
2022-10-23T13:13:32.922Z,14.05
2022-10-23T13:15:43.866Z,14.08
2022-10-23T13:18:06.636Z,14.10
2022-10-23T13:20:32.409Z,14.12
2022-10-23T13:22:36.559Z,14.13
2022-10-23T13:24:41.311Z,14.07
2022-10-23T13:26:43.061Z,14.15
2022-10-23T13:28:45.859Z,13.91
2022-10-23T13:31:02.688Z,13.84
2022-10-23T13:33:26.168Z,13.84
2022-10-23T13:35:27.867Z,13.82
2022-10-23T13:37:30.281Z,13.91
2022-10-23T13:39:34.048Z,13.72
2022-10-23T13:41:37.591Z,13.60
2022-10-23T13:43:40.336Z,13.38
2022-10-23T13:45:42.081Z,13.38
2022-10-23T13:47:44.282Z,13.45
2022-10-23T13:49:46.304Z,13.62
2022-10-23T13:51:51.716Z,13.59
2022-10-23T13:53:54.701Z,13.52
2022-10-23T13:55:58.728Z,13.51
2022-10-23T13:58:00.763Z,13.63
2022-10-23T14:00:02.744Z,13.72
2022-10-23T14:02:18.539Z,13.82
2022-10-23T14:04:20.467Z,13.84
2022-10-23T14:06:22.242Z,13.93
2022-10-23T14:08:23.979Z,13.89
2022-10-23T14:10:27.697Z,13.88
2022-10-23T14:12:29.724Z,13.85
2022-10-23T14:14:31.447Z,13.87
2022-10-23T14:16:33.369Z,14.01
2022-10-23T14:18:35.287Z,13.98
2022-10-23T14:20:38.523Z,13.96
2022-10-23T14:22:40.279Z,13.87
2022-10-23T14:24:42.248Z,13.69
2022-10-23T14:26:44.041Z,13.67
2022-10-23T14:28:45.955Z,13.67
2022-10-23T14:30:47.835Z,13.83
2022-10-23T14:32:49.558Z,13.86
2022-10-23T14:34:53.576Z,13.68
2022-10-23T14:37:08.135Z,13.77
2022-10-23T14:39:10.765Z,13.65
2022-10-23T14:41:14.221Z,13.68
2022-10-23T14:43:16.249Z,13.60
2022-10-23T14:45:17.976Z,13.71
2022-10-23T14:47:19.978Z,13.64
2022-10-23T14:49:32.831Z,13.69
2022-10-23T14:51:39.711Z,13.75
2022-10-23T14:53:44.608Z,13.83
2022-10-23T14:55:46.740Z,13.84
2022-10-23T14:57:48.850Z,13.79
2022-10-23T14:59:50.677Z,13.69
2022-10-23T15:03:59.086Z,13.67
2022-10-23T15:06:00.774Z,13.54
2022-10-23T15:08:02.510Z,13.54
2022-10-23T15:10:05.414Z,13.55
2022-10-23T15:12:07.610Z,13.45
2022-10-23T15:14:09.621Z,13.43
2022-10-23T15:16:12.119Z,13.19
2022-10-23T15:18:13.834Z,13.15
2022-10-23T15:20:15.739Z,13.12
2022-10-23T15:22:17.748Z,13.14
2022-10-23T15:24:19.923Z,13.07
2022-10-23T15:26:21.947Z,13.01
2022-10-23T15:28:23.667Z,12.97
2022-10-23T15:30:25.757Z,12.81
2022-10-23T15:32:27.631Z,12.78
2022-10-23T15:34:30.144Z,12.75
2022-10-23T15:36:31.906Z,12.72
2022-10-23T15:38:33.621Z,12.70
2022-10-23T15:40:35.301Z,12.65
2022-10-23T15:42:37.036Z,12.58
2022-10-23T15:44:40.297Z,12.53
2022-10-23T15:46:42.496Z,12.46
2022-10-23T15:48:44.193Z,12.41
2022-10-23T15:50:45.879Z,12.35
2022-10-23T15:52:47.642Z,12.29
2022-10-23T15:54:49.336Z,12.19
2022-10-23T15:56:53.571Z,12.16
2022-10-23T15:58:55.429Z,12.09
2022-10-23T16:00:57.381Z,12.02
2022-10-23T16:02:59.458Z,11.97
2022-10-23T16:05:01.216Z,11.84
2022-10-23T16:07:02.936Z,11.82
2022-10-23T16:09:05.649Z,11.80
2022-10-23T16:11:15.486Z,11.78
2022-10-23T16:13:17.255Z,11.75
2022-10-23T16:15:19.431Z,11.71
2022-10-23T16:17:21.167Z,11.70
2022-10-23T16:19:22.886Z,11.56
2022-10-23T16:21:27.691Z,11.58
2022-10-23T16:23:29.471Z,11.56
2022-10-23T16:27:37.859Z,11.43
2022-10-23T16:29:39.586Z,11.32
2022-10-23T16:31:41.339Z,11.22
2022-10-23T16:33:43.273Z,11.15
2022-10-23T16:35:45.110Z,11.17
2022-10-23T16:37:47.038Z,11.18
2022-10-23T16:39:49.023Z,11.18
2022-10-23T16:41:50.799Z,11.10
2022-10-23T16:43:52.507Z,11.13
2022-10-23T16:46:08.436Z,11.16
2022-10-23T16:48:10.157Z,11.14
2022-10-23T16:50:11.856Z,11.12
2022-10-23T16:52:13.547Z,11.06
2022-10-23T16:54:15.280Z,11.06
2022-10-23T16:56:21.325Z,11.03
2022-10-23T16:58:24.225Z,11.00
2022-10-23T17:00:26.261Z,10.96
2022-10-23T17:02:28.071Z,10.96
2022-10-23T17:04:30.214Z,10.90
2022-10-23T17:06:33.029Z,10.83
2022-10-23T17:08:34.975Z,10.75
2022-10-23T17:10:37.042Z,10.60
2022-10-23T17:12:38.764Z,10.52
2022-10-23T17:14:40.509Z,10.55
2022-10-23T17:16:45.570Z,10.53
2022-10-23T17:18:47.407Z,10.47
2022-10-23T17:20:57.034Z,10.53
2022-10-23T17:22:58.883Z,10.51
2022-10-23T17:25:00.609Z,10.51
2022-10-23T17:27:02.308Z,10.53
2022-10-23T17:29:06.472Z,10.55
2022-10-23T17:31:22.259Z,10.44
2022-10-23T17:33:24.010Z,10.17
2022-10-23T17:35:25.957Z,10.03
2022-10-23T17:37:27.666Z,10.07
2022-10-23T17:39:30.135Z,10.06
2022-10-23T17:41:32.179Z,9.88
2022-10-23T17:43:34.562Z,9.80
2022-10-23T17:45:36.320Z,9.73
2022-10-23T17:47:38.340Z,9.76
2022-10-23T17:49:42.784Z,9.77
2022-10-23T17:51:51.870Z,9.75
2022-10-23T17:53:55.735Z,9.82
2022-10-23T17:55:57.857Z,9.66
2022-10-23T17:57:59.578Z,9.71
2022-10-23T18:00:01.439Z,9.66
2022-10-23T18:02:03.282Z,9.63
2022-10-23T18:04:07.226Z,9.63
2022-10-23T18:06:15.688Z,9.61
2022-10-23T18:08:17.418Z,9.68
2022-10-23T18:10:19.628Z,9.69
2022-10-23T18:12:22.052Z,9.73
2022-10-23T18:14:26.112Z,9.78
2022-10-23T18:16:30.304Z,9.85
2022-10-23T18:18:32.656Z,9.77
2022-10-23T18:20:39.658Z,9.63
2022-10-23T18:22:41.548Z,9.61
2022-10-23T18:24:43.678Z,9.67
2022-10-23T18:26:45.746Z,9.70
2022-10-23T18:28:49.100Z,9.68
2022-10-23T18:30:53.366Z,9.71
2022-10-23T18:32:57.813Z,9.60
2022-10-23T18:34:59.673Z,9.55
2022-10-23T18:37:01.835Z,9.56
2022-10-23T18:39:05.333Z,9.59
2022-10-23T18:41:07.173Z,9.62
2022-10-23T18:43:14.827Z,9.55
2022-10-23T18:45:17.102Z,9.51
2022-10-23T18:47:18.841Z,9.42
2022-10-23T18:49:20.767Z,9.36
2022-10-23T18:51:34.102Z,9.42
2022-10-23T18:53:35.827Z,9.49
2022-10-23T18:55:44.374Z,9.59
2022-10-23T18:57:46.471Z,9.67
2022-10-23T18:59:48.440Z,9.51
2022-10-23T19:01:50.367Z,9.41
2022-10-23T19:03:52.874Z,9.42
2022-10-23T19:05:54.643Z,9.51
2022-10-23T19:07:56.505Z,9.57
2022-10-23T19:09:58.722Z,9.58
2022-10-23T19:12:00.531Z,9.58
2022-10-23T19:14:02.461Z,9.50
2022-10-23T19:16:06.946Z,9.50
2022-10-23T19:18:09.466Z,9.52
2022-10-23T19:20:14.664Z,9.60
2022-10-23T19:22:18.064Z,9.66
2022-10-23T19:24:25.602Z,9.70
2022-10-23T19:26:29.736Z,9.73
2022-10-23T19:28:35.371Z,9.69
2022-10-23T19:30:40.121Z,9.64
2022-10-23T19:32:42.736Z,9.70
2022-10-23T19:34:44.831Z,9.61
2022-10-23T19:36:47.943Z,9.54
2022-10-23T19:38:49.752Z,9.61
2022-10-23T19:40:51.495Z,9.57
2022-10-23T19:42:53.177Z,9.54
2022-10-23T19:44:55.062Z,9.49
2022-10-23T19:46:56.752Z,9.44
2022-10-23T19:48:58.470Z,9.44
2022-10-23T19:51:00.462Z,9.48
2022-10-23T19:53:02.232Z,9.41
2022-10-23T19:55:05.138Z,9.39
2022-10-23T19:57:07.254Z,9.39
2022-10-23T19:59:10.812Z,9.43
2022-10-23T20:01:16.565Z,9.43
2022-10-23T20:03:18.389Z,9.48
2022-10-23T20:05:20.856Z,9.48
2022-10-23T20:07:22.587Z,9.55
2022-10-23T20:09:24.586Z,9.55
2022-10-23T20:11:30.102Z,9.56
2022-10-23T20:13:32.065Z,9.50
2022-10-23T20:15:36.901Z,9.57
2022-10-23T20:17:38.623Z,9.56
2022-10-23T20:19:40.334Z,9.49
2022-10-23T20:21:43.978Z,9.54
2022-10-23T20:23:45.896Z,9.54
2022-10-23T20:25:47.655Z,9.49
2022-10-23T20:27:49.334Z,9.37
2022-10-23T20:29:51.162Z,9.33
2022-10-23T20:31:56.923Z,9.36
2022-10-23T20:33:58.698Z,9.37
2022-10-23T20:36:00.416Z,9.42
2022-10-23T20:38:02.140Z,9.38
2022-10-23T20:40:04.205Z,9.33
2022-10-23T20:42:06.295Z,9.33
2022-10-23T20:44:11.031Z,9.35
2022-10-23T20:46:13.095Z,9.38
2022-10-23T20:48:14.820Z,9.40
2022-10-23T20:50:16.580Z,9.44
2022-10-23T20:52:18.402Z,9.46
2022-10-23T20:54:20.084Z,9.54
2022-10-23T20:56:23.392Z,9.38
2022-10-23T20:58:25.343Z,9.38
2022-10-23T21:00:27.018Z,9.45
2022-10-23T21:02:29.042Z,9.48
2022-10-23T21:04:31.080Z,9.43
2022-10-23T21:06:45.816Z,9.45
2022-10-23T21:09:00.104Z,9.48
2022-10-23T21:11:01.825Z,9.48
2022-10-23T21:13:03.523Z,9.43
2022-10-23T21:15:05.772Z,9.44
2022-10-23T21:17:07.672Z,9.41
2022-10-23T21:19:12.729Z,9.48
2022-10-23T21:21:20.231Z,9.54
2022-10-23T21:23:22.296Z,9.57
2022-10-23T21:25:24.012Z,9.59
2022-10-23T21:27:25.740Z,9.51
2022-10-23T21:29:27.733Z,9.54
2022-10-23T21:31:29.525Z,9.47
2022-10-23T21:33:31.868Z,9.47
2022-10-23T21:35:33.782Z,9.50
2022-10-23T21:37:35.520Z,9.61
2022-10-23T21:39:37.247Z,9.80
2022-10-23T21:41:39.350Z,9.75
2022-10-23T21:43:41.554Z,9.67
2022-10-23T21:45:43.268Z,9.67
2022-10-23T21:47:45.463Z,9.55
2022-10-23T21:49:47.287Z,9.53
2022-10-23T21:51:49.011Z,9.58
2022-10-23T21:53:52.955Z,9.67
2022-10-23T21:55:56.302Z,9.66
2022-10-23T21:57:57.995Z,9.68
2022-10-23T22:00:00.241Z,9.70
2022-10-23T22:02:02.007Z,9.70
2022-10-23T22:04:03.783Z,9.71
2022-10-23T22:06:05.967Z,9.66
2022-10-23T22:08:07.645Z,9.72
2022-10-23T22:10:09.391Z,9.61
2022-10-23T22:12:12.057Z,9.59
2022-10-23T22:14:13.887Z,9.55
2022-10-23T22:16:17.305Z,9.48
2022-10-23T22:18:19.137Z,9.58
2022-10-23T22:20:21.021Z,9.64
2022-10-23T22:22:22.773Z,9.75
2022-10-23T22:24:25.144Z,9.80
2022-10-23T22:26:38.791Z,9.79
2022-10-23T22:28:40.565Z,9.71
2022-10-23T22:30:42.406Z,9.45
2022-10-23T22:32:48.364Z,9.34
2022-10-23T22:34:52.981Z,9.27
2022-10-23T22:36:56.116Z,9.26
2022-10-23T22:38:57.917Z,9.33
2022-10-23T22:41:04.217Z,9.38
2022-10-23T22:43:06.637Z,9.47
2022-10-23T22:45:09.131Z,9.42
2022-10-23T22:47:10.906Z,9.45
2022-10-23T22:49:13.175Z,9.41
2022-10-23T22:51:17.511Z,9.38
2022-10-23T22:53:19.210Z,9.38
2022-10-23T22:55:21.165Z,9.38
2022-10-23T22:57:22.979Z,9.45
2022-10-23T22:59:24.733Z,9.43
2022-10-23T23:01:36.606Z,9.42
2022-10-23T23:03:38.869Z,9.41
2022-10-23T23:05:47.971Z,9.44
2022-10-23T23:07:50.025Z,9.45
2022-10-23T23:09:51.745Z,9.50
2022-10-23T23:11:53.437Z,9.58
2022-10-23T23:13:55.256Z,9.53
2022-10-23T23:15:57.560Z,9.57
2022-10-23T23:17:59.438Z,9.61
2022-10-23T23:20:01.404Z,9.59
2022-10-23T23:22:04.165Z,9.78
2022-10-23T23:24:05.924Z,9.79
2022-10-23T23:26:08.766Z,9.83
2022-10-23T23:28:18.654Z,9.95
2022-10-23T23:30:20.880Z,10.01
2022-10-23T23:32:22.855Z,10.01
2022-10-23T23:34:24.614Z,9.95
2022-10-23T23:36:27.811Z,10.01
2022-10-23T23:38:29.889Z,9.97
2022-10-23T23:40:31.653Z,9.96
2022-10-23T23:42:33.383Z,9.89
2022-10-23T23:44:41.946Z,9.99
2022-10-23T23:46:52.647Z,10.08
2022-10-23T23:48:54.334Z,10.08
2022-10-23T23:50:56.139Z,10.12
2022-10-23T23:52:57.847Z,10.00
2022-10-23T23:55:00.390Z,10.09
2022-10-23T23:57:02.422Z,10.18
2022-10-23T23:59:04.135Z,10.28
